This is the latest recevied weather packets stored in our database for station/object OM6ABF-11. If no packets are shown the sender has not sent any weather packets the latest 10 day(s).
| Time | Temp. | Humidity | Pressure | Rain* | Wind** | Luminosity | Snow |
|---|---|---|---|---|---|---|---|
| 1777589254 | -0.56° C | 64% | 1029.3 hPa | - | - | - | - |
| 1777588354 | 0° C | 59% | 1029.3 hPa | - | - | - | - |
| 1777587456 | 1.11° C | 51% | 1029.2 hPa | - | - | - | - |
| 1777586557 | 1.11° C | 51% | 1029.1 hPa | - | - | - | - |
| 1777585657 | 1.11° C | 53% | 1029.1 hPa | - | - | - | - |
| 1777584758 | 1.11° C | 54% | 1029.1 hPa | - | - | - | - |
| 1777583858 | 1.67° C | 51% | 1029 hPa | - | - | - | - |
| 1777582962 | 2.22° C | 48% | 1028.9 hPa | - | - | - | - |
| 1777582063 | 2.22° C | 49% | 1028.8 hPa | - | - | - | - |
| 1777581163 | 2.78° C | 46% | 1028.9 hPa | - | - | - | - |
| 1777580262 | 3.33° C | 43% | 1028.8 hPa | - | - | - | - |
| 1777579364 | 3.89° C | 41% | 1028.7 hPa | - | - | - | - |
| 1777578463 | 3.33° C | 45% | 1028.7 hPa | - | - | - | - |
| 1777577564 | 4.44° C | 42% | 1028.5 hPa | - | - | - | - |
| 1777576665 | 5° C | 40% | 1028.4 hPa | - | - | - | - |
| 1777575766 | 5° C | 39% | 1028.4 hPa | - | - | - | - |
| 1777574866 | 5.56° C | 40% | 1028.1 hPa | - | - | - | - |
| 1777573966 | 5.56° C | 38% | 1028 hPa | - | - | - | - |
| 1777573066 | 6.11° C | 36% | 1027.9 hPa | - | - | - | - |
| 1777572168 | 6.67° C | 36% | 1027.8 hPa | - | - | - | - |
| 1777571269 | 7.78° C | 33% | 1027.6 hPa | - | - | - | - |
| 1777570370 | 8.89° C | 31% | 1027.5 hPa | - | - | - | - |
| 1777569472 | 10° C | 29% | 1027.4 hPa | - | - | - | - |
| 1777567675 | 11.11° C | 27% | 1027.2 hPa | - | - | - | - |
| 1777566776 | 11.11° C | 27% | 1027 hPa | - | - | - | - |
* Rain since midnight (hover to see other rain measurements)
** Current wind speed in m/s (hover to see current wind gust speed)